sensor_id;sensor_type;location;lat;lon;timestamp;P1;durP1;ratioP1;P2;durP2;ratioP2
14474;SDS011;7323;50.848;4.334;2023-02-13T00:00:47;56.00;;;37.23;;
14474;SDS011;7323;50.848;4.334;2023-02-13T00:03:14;60.87;;;38.40;;
14474;SDS011;7323;50.848;4.334;2023-02-13T00:05:39;59.20;;;38.87;;
14474;SDS011;7323;50.848;4.334;2023-02-13T00:08:05;58.47;;;37.90;;
14474;SDS011;7323;50.848;4.334;2023-02-13T00:10:31;64.23;;;37.50;;
14474;SDS011;7323;50.848;4.334;2023-02-13T00:12:56;62.63;;;38.63;;
14474;SDS011;7323;50.848;4.334;2023-02-13T00:15:22;60.17;;;38.87;;
14474;SDS011;7323;50.848;4.334;2023-02-13T00:17:48;60.47;;;37.40;;
14474;SDS011;7323;50.848;4.334;2023-02-13T00:20:15;63.33;;;38.00;;
14474;SDS011;7323;50.848;4.334;2023-02-13T00:22:43;59.37;;;38.27;;
14474;SDS011;7323;50.848;4.334;2023-02-13T00:25:09;62.23;;;39.50;;
14474;SDS011;7323;50.848;4.334;2023-02-13T00:27:37;64.63;;;39.47;;
14474;SDS011;7323;50.848;4.334;2023-02-13T00:30:03;63.57;;;39.83;;
14474;SDS011;7323;50.848;4.334;2023-02-13T00:32:29;58.90;;;38.20;;
14474;SDS011;7323;50.848;4.334;2023-02-13T00:34:55;64.73;;;38.83;;
14474;SDS011;7323;50.848;4.334;2023-02-13T00:37:22;62.33;;;38.27;;
14474;SDS011;7323;50.848;4.334;2023-02-13T00:39:48;61.60;;;39.23;;
14474;SDS011;7323;50.848;4.334;2023-02-13T00:42:14;64.30;;;38.73;;
14474;SDS011;7323;50.848;4.334;2023-02-13T00:44:39;61.20;;;36.83;;
14474;SDS011;7323;50.848;4.334;2023-02-13T00:47:05;60.80;;;37.40;;
14474;SDS011;7323;50.848;4.334;2023-02-13T00:49:31;64.33;;;38.33;;
14474;SDS011;7323;50.848;4.334;2023-02-13T00:52:03;56.73;;;37.20;;
14474;SDS011;7323;50.848;4.334;2023-02-13T00:54:29;61.70;;;38.67;;
14474;SDS011;7323;50.848;4.334;2023-02-13T00:56:55;62.93;;;39.10;;
14474;SDS011;7323;50.848;4.334;2023-02-13T00:59:21;60.13;;;38.33;;
14474;SDS011;7323;50.848;4.334;2023-02-13T01:01:46;54.87;;;35.23;;
14474;SDS011;7323;50.848;4.334;2023-02-13T01:04:12;57.40;;;35.93;;
14474;SDS011;7323;50.848;4.334;2023-02-13T01:06:38;63.30;;;38.10;;
14474;SDS011;7323;50.848;4.334;2023-02-13T01:09:04;59.50;;;37.93;;
14474;SDS011;7323;50.848;4.334;2023-02-13T01:11:30;63.93;;;39.33;;
14474;SDS011;7323;50.848;4.334;2023-02-13T01:13:58;63.87;;;40.03;;
14474;SDS011;7323;50.848;4.334;2023-02-13T01:16:23;61.33;;;37.30;;
14474;SDS011;7323;50.848;4.334;2023-02-13T01:18:49;62.17;;;40.30;;
14474;SDS011;7323;50.848;4.334;2023-02-13T01:21:17;64.47;;;38.33;;
14474;SDS011;7323;50.848;4.334;2023-02-13T01:23:44;60.03;;;39.20;;
14474;SDS011;7323;50.848;4.334;2023-02-13T01:26:13;64.33;;;39.03;;
14474;SDS011;7323;50.848;4.334;2023-02-13T01:28:52;63.70;;;40.20;;
14474;SDS011;7323;50.848;4.334;2023-02-13T01:34:14;63.33;;;40.27;;
14474;SDS011;7323;50.848;4.334;2023-02-13T01:36:42;65.67;;;39.63;;
14474;SDS011;7323;50.848;4.334;2023-02-13T01:39:09;68.37;;;40.93;;
14474;SDS011;7323;50.848;4.334;2023-02-13T01:41:36;70.00;;;40.47;;
14474;SDS011;7323;50.848;4.334;2023-02-13T01:44:43;71.07;;;42.17;;
14474;SDS011;7323;50.848;4.334;2023-02-13T01:47:07;64.10;;;39.70;;
14474;SDS011;7323;50.848;4.334;2023-02-13T01:49:37;65.77;;;40.03;;
14474;SDS011;7323;50.848;4.334;2023-02-13T01:52:04;69.10;;;41.13;;
14474;SDS011;7323;50.848;4.334;2023-02-13T01:54:31;61.93;;;40.00;;
14474;SDS011;7323;50.848;4.334;2023-02-13T01:57:01;66.20;;;40.27;;
14474;SDS011;7323;50.848;4.334;2023-02-13T01:59:40;62.33;;;38.93;;
14474;SDS011;7323;50.848;4.334;2023-02-13T02:02:19;69.03;;;41.60;;
14474;SDS011;7323;50.848;4.334;2023-02-13T02:04:46;66.37;;;39.80;;
14474;SDS011;7323;50.848;4.334;2023-02-13T02:07:14;66.90;;;39.47;;
14474;SDS011;7323;50.848;4.334;2023-02-13T02:09:44;71.07;;;42.27;;
14474;SDS011;7323;50.848;4.334;2023-02-13T02:14:39;72.30;;;41.20;;
14474;SDS011;7323;50.848;4.334;2023-02-13T02:17:05;67.50;;;39.67;;
14474;SDS011;7323;50.848;4.334;2023-02-13T02:19:43;70.30;;;41.27;;
14474;SDS011;7323;50.848;4.334;2023-02-13T02:22:18;65.80;;;39.60;;
14474;SDS011;7323;50.848;4.334;2023-02-13T02:25:17;66.43;;;41.30;;
14474;SDS011;7323;50.848;4.334;2023-02-13T02:28:09;63.50;;;40.27;;
14474;SDS011;7323;50.848;4.334;2023-02-13T02:44:32;71.10;;;41.40;;
14474;SDS011;7323;50.848;4.334;2023-02-13T02:50:10;68.13;;;40.07;;
14474;SDS011;7323;50.848;4.334;2023-02-13T02:55:34;67.57;;;40.47;;
14474;SDS011;7323;50.848;4.334;2023-02-13T02:58:17;68.87;;;39.13;;
14474;SDS011;7323;50.848;4.334;2023-02-13T03:01:15;66.70;;;39.40;;
14474;SDS011;7323;50.848;4.334;2023-02-13T03:04:28;64.27;;;39.27;;
14474;SDS011;7323;50.848;4.334;2023-02-13T03:07:15;63.37;;;38.83;;
14474;SDS011;7323;50.848;4.334;2023-02-13T03:09:45;69.67;;;40.43;;
14474;SDS011;7323;50.848;4.334;2023-02-13T03:12:53;65.63;;;39.67;;
14474;SDS011;7323;50.848;4.334;2023-02-13T03:15:43;68.57;;;40.37;;
14474;SDS011;7323;50.848;4.334;2023-02-13T03:18:30;72.30;;;41.37;;
14474;SDS011;7323;50.848;4.334;2023-02-13T03:21:39;66.43;;;39.87;;
14474;SDS011;7323;50.848;4.334;2023-02-13T03:24:44;61.93;;;38.27;;
14474;SDS011;7323;50.848;4.334;2023-02-13T03:41:41;66.90;;;39.00;;
14474;SDS011;7323;50.848;4.334;2023-02-13T03:44:25;63.80;;;37.23;;
14474;SDS011;7323;50.848;4.334;2023-02-13T03:47:04;66.70;;;39.60;;
14474;SDS011;7323;50.848;4.334;2023-02-13T03:49:34;70.23;;;40.20;;
14474;SDS011;7323;50.848;4.334;2023-02-13T03:52:25;64.73;;;38.93;;
14474;SDS011;7323;50.848;4.334;2023-02-13T03:55:19;72.80;;;40.80;;
14474;SDS011;7323;50.848;4.334;2023-02-13T03:58:18;70.27;;;39.83;;
14474;SDS011;7323;50.848;4.334;2023-02-13T04:01:11;68.87;;;39.97;;
14474;SDS011;7323;50.848;4.334;2023-02-13T04:03:57;68.77;;;41.50;;
14474;SDS011;7323;50.848;4.334;2023-02-13T04:06:41;67.17;;;38.93;;
14474;SDS011;7323;50.848;4.334;2023-02-13T04:09:08;65.00;;;39.20;;
14474;SDS011;7323;50.848;4.334;2023-02-13T04:14:54;63.93;;;39.07;;
14474;SDS011;7323;50.848;4.334;2023-02-13T04:17:44;64.53;;;39.53;;
14474;SDS011;7323;50.848;4.334;2023-02-13T04:20:30;70.47;;;41.13;;
14474;SDS011;7323;50.848;4.334;2023-02-13T04:22:56;71.27;;;41.53;;
14474;SDS011;7323;50.848;4.334;2023-02-13T04:25:29;68.17;;;41.03;;
14474;SDS011;7323;50.848;4.334;2023-02-13T04:27:55;70.97;;;40.90;;
14474;SDS011;7323;50.848;4.334;2023-02-13T04:30:21;66.67;;;38.90;;
14474;SDS011;7323;50.848;4.334;2023-02-13T04:32:46;68.10;;;41.47;;
14474;SDS011;7323;50.848;4.334;2023-02-13T04:35:12;65.80;;;39.90;;
14474;SDS011;7323;50.848;4.334;2023-02-13T04:37:38;64.83;;;39.10;;
14474;SDS011;7323;50.848;4.334;2023-02-13T04:40:05;69.53;;;40.60;;
14474;SDS011;7323;50.848;4.334;2023-02-13T04:42:30;59.37;;;36.50;;
14474;SDS011;7323;50.848;4.334;2023-02-13T04:44:56;66.83;;;39.17;;
14474;SDS011;7323;50.848;4.334;2023-02-13T04:47:22;69.23;;;40.83;;
14474;SDS011;7323;50.848;4.334;2023-02-13T04:49:47;66.57;;;39.70;;
14474;SDS011;7323;50.848;4.334;2023-02-13T04:52:13;67.43;;;40.77;;
14474;SDS011;7323;50.848;4.334;2023-02-13T04:54:40;65.97;;;40.63;;
14474;SDS011;7323;50.848;4.334;2023-02-13T04:57:06;67.27;;;40.43;;
14474;SDS011;7323;50.848;4.334;2023-02-13T04:59:31;66.63;;;38.53;;
14474;SDS011;7323;50.848;4.334;2023-02-13T05:01:57;65.87;;;40.43;;
14474;SDS011;7323;50.848;4.334;2023-02-13T05:04:23;60.47;;;38.63;;
14474;SDS011;7323;50.848;4.334;2023-02-13T05:06:50;64.27;;;40.00;;
14474;SDS011;7323;50.848;4.334;2023-02-13T05:09:16;68.10;;;42.13;;
14474;SDS011;7323;50.848;4.334;2023-02-13T05:11:45;67.77;;;40.63;;
14474;SDS011;7323;50.848;4.334;2023-02-13T05:14:10;74.47;;;44.10;;
14474;SDS011;7323;50.848;4.334;2023-02-13T05:16:36;73.87;;;42.13;;
14474;SDS011;7323;50.848;4.334;2023-02-13T05:19:02;75.33;;;44.40;;
14474;SDS011;7323;50.848;4.334;2023-02-13T05:21:29;75.47;;;42.83;;
14474;SDS011;7323;50.848;4.334;2023-02-13T05:24:13;72.40;;;41.27;;
14474;SDS011;7323;50.848;4.334;2023-02-13T05:26:39;74.70;;;41.00;;
14474;SDS011;7323;50.848;4.334;2023-02-13T05:29:04;67.07;;;40.90;;
14474;SDS011;7323;50.848;4.334;2023-02-13T05:31:53;65.03;;;39.80;;
14474;SDS011;7323;50.848;4.334;2023-02-13T05:34:21;64.83;;;39.73;;
14474;SDS011;7323;50.848;4.334;2023-02-13T05:36:48;63.70;;;37.03;;
14474;SDS011;7323;50.848;4.334;2023-02-13T05:39:15;64.03;;;39.73;;
14474;SDS011;7323;50.848;4.334;2023-02-13T05:41:41;66.47;;;40.33;;
14474;SDS011;7323;50.848;4.334;2023-02-13T05:44:11;65.30;;;38.87;;
14474;SDS011;7323;50.848;4.334;2023-02-13T05:46:38;67.17;;;39.27;;
14474;SDS011;7323;50.848;4.334;2023-02-13T05:49:05;66.13;;;39.07;;
14474;SDS011;7323;50.848;4.334;2023-02-13T05:51:31;62.37;;;39.73;;
14474;SDS011;7323;50.848;4.334;2023-02-13T05:53:57;58.13;;;37.17;;
14474;SDS011;7323;50.848;4.334;2023-02-13T05:56:24;56.83;;;34.47;;
14474;SDS011;7323;50.848;4.334;2023-02-13T06:01:39;58.70;;;35.90;;
14474;SDS011;7323;50.848;4.334;2023-02-13T06:04:05;53.57;;;34.50;;
14474;SDS011;7323;50.848;4.334;2023-02-13T06:06:31;55.00;;;35.77;;
14474;SDS011;7323;50.848;4.334;2023-02-13T06:08:57;59.73;;;37.37;;
14474;SDS011;7323;50.848;4.334;2023-02-13T06:11:25;56.43;;;35.30;;
14474;SDS011;7323;50.848;4.334;2023-02-13T06:13:50;52.00;;;33.07;;
14474;SDS011;7323;50.848;4.334;2023-02-13T06:16:16;52.43;;;33.67;;
14474;SDS011;7323;50.848;4.334;2023-02-13T06:18:41;54.17;;;34.23;;
14474;SDS011;7323;50.848;4.334;2023-02-13T06:21:07;53.97;;;34.43;;
14474;SDS011;7323;50.848;4.334;2023-02-13T06:23:34;57.00;;;33.53;;
14474;SDS011;7323;50.848;4.334;2023-02-13T06:26:03;53.87;;;34.30;;
14474;SDS011;7323;50.848;4.334;2023-02-13T06:28:31;52.53;;;33.00;;
14474;SDS011;7323;50.848;4.334;2023-02-13T06:31:04;52.73;;;33.37;;
14474;SDS011;7323;50.848;4.334;2023-02-13T06:33:32;55.07;;;34.40;;
14474;SDS011;7323;50.848;4.334;2023-02-13T06:35:58;54.10;;;33.20;;
14474;SDS011;7323;50.848;4.334;2023-02-13T06:38:24;55.73;;;33.30;;
14474;SDS011;7323;50.848;4.334;2023-02-13T06:40:50;52.30;;;31.03;;
14474;SDS011;7323;50.848;4.334;2023-02-13T06:43:16;53.93;;;33.27;;
14474;SDS011;7323;50.848;4.334;2023-02-13T06:45:42;53.87;;;33.13;;
14474;SDS011;7323;50.848;4.334;2023-02-13T06:48:10;51.83;;;31.70;;
14474;SDS011;7323;50.848;4.334;2023-02-13T06:50:36;54.87;;;33.53;;
14474;SDS011;7323;50.848;4.334;2023-02-13T06:53:03;48.87;;;30.93;;
14474;SDS011;7323;50.848;4.334;2023-02-13T06:55:29;54.73;;;33.10;;
14474;SDS011;7323;50.848;4.334;2023-02-13T06:57:54;51.80;;;32.53;;
14474;SDS011;7323;50.848;4.334;2023-02-13T07:00:20;50.30;;;31.37;;
14474;SDS011;7323;50.848;4.334;2023-02-13T07:02:48;51.23;;;32.27;;
14474;SDS011;7323;50.848;4.334;2023-02-13T07:05:16;54.57;;;32.37;;
14474;SDS011;7323;50.848;4.334;2023-02-13T07:07:42;49.73;;;31.53;;
14474;SDS011;7323;50.848;4.334;2023-02-13T07:10:09;53.43;;;31.37;;
14474;SDS011;7323;50.848;4.334;2023-02-13T07:12:39;51.33;;;32.33;;
14474;SDS011;7323;50.848;4.334;2023-02-13T07:15:06;49.83;;;31.77;;
14474;SDS011;7323;50.848;4.334;2023-02-13T07:17:33;51.40;;;32.13;;
14474;SDS011;7323;50.848;4.334;2023-02-13T07:20:00;47.00;;;31.53;;
14474;SDS011;7323;50.848;4.334;2023-02-13T07:22:32;51.03;;;31.60;;
14474;SDS011;7323;50.848;4.334;2023-02-13T07:24:59;48.77;;;31.73;;
14474;SDS011;7323;50.848;4.334;2023-02-13T07:27:25;49.67;;;31.93;;
14474;SDS011;7323;50.848;4.334;2023-02-13T07:29:55;47.70;;;31.80;;
14474;SDS011;7323;50.848;4.334;2023-02-13T07:32:22;51.67;;;33.47;;
14474;SDS011;7323;50.848;4.334;2023-02-13T07:34:59;46.10;;;31.30;;
14474;SDS011;7323;50.848;4.334;2023-02-13T07:37:26;50.50;;;32.57;;
14474;SDS011;7323;50.848;4.334;2023-02-13T07:39:53;49.70;;;32.87;;
14474;SDS011;7323;50.848;4.334;2023-02-13T07:42:18;50.33;;;32.30;;
14474;SDS011;7323;50.848;4.334;2023-02-13T07:44:44;47.87;;;32.67;;
14474;SDS011;7323;50.848;4.334;2023-02-13T07:47:10;44.30;;;30.23;;
14474;SDS011;7323;50.848;4.334;2023-02-13T07:49:35;47.57;;;30.47;;
14474;SDS011;7323;50.848;4.334;2023-02-13T07:52:02;47.47;;;29.93;;
14474;SDS011;7323;50.848;4.334;2023-02-13T07:54:28;47.07;;;29.83;;
14474;SDS011;7323;50.848;4.334;2023-02-13T07:56:54;46.90;;;30.53;;
14474;SDS011;7323;50.848;4.334;2023-02-13T07:59:20;50.37;;;32.43;;
14474;SDS011;7323;50.848;4.334;2023-02-13T08:01:46;43.40;;;29.77;;
14474;SDS011;7323;50.848;4.334;2023-02-13T08:04:11;51.70;;;29.27;;
14474;SDS011;7323;50.848;4.334;2023-02-13T08:06:39;47.67;;;29.00;;
14474;SDS011;7323;50.848;4.334;2023-02-13T08:09:05;48.40;;;30.17;;
14474;SDS011;7323;50.848;4.334;2023-02-13T08:11:49;50.03;;;28.27;;
14474;SDS011;7323;50.848;4.334;2023-02-13T08:14:23;44.23;;;28.23;;
14474;SDS011;7323;50.848;4.334;2023-02-13T08:16:50;43.10;;;26.70;;
14474;SDS011;7323;50.848;4.334;2023-02-13T08:19:17;45.80;;;27.63;;
14474;SDS011;7323;50.848;4.334;2023-02-13T08:21:44;43.50;;;26.67;;
14474;SDS011;7323;50.848;4.334;2023-02-13T08:24:10;41.00;;;26.13;;
14474;SDS011;7323;50.848;4.334;2023-02-13T08:26:38;48.50;;;27.57;;
14474;SDS011;7323;50.848;4.334;2023-02-13T08:29:05;40.00;;;25.47;;
14474;SDS011;7323;50.848;4.334;2023-02-13T08:31:31;41.57;;;26.40;;
14474;SDS011;7323;50.848;4.334;2023-02-13T08:33:57;42.57;;;27.20;;
14474;SDS011;7323;50.848;4.334;2023-02-13T08:36:24;43.13;;;26.37;;
14474;SDS011;7323;50.848;4.334;2023-02-13T08:38:51;43.50;;;26.57;;
14474;SDS011;7323;50.848;4.334;2023-02-13T08:41:18;43.57;;;26.00;;
14474;SDS011;7323;50.848;4.334;2023-02-13T08:43:47;33.47;;;24.00;;
14474;SDS011;7323;50.848;4.334;2023-02-13T08:46:15;37.50;;;25.63;;
14474;SDS011;7323;50.848;4.334;2023-02-13T08:48:42;37.10;;;24.83;;
14474;SDS011;7323;50.848;4.334;2023-02-13T08:51:09;36.40;;;26.27;;
14474;SDS011;7323;50.848;4.334;2023-02-13T08:53:36;42.30;;;26.13;;
14474;SDS011;7323;50.848;4.334;2023-02-13T08:56:03;34.43;;;24.73;;
14474;SDS011;7323;50.848;4.334;2023-02-13T08:58:29;39.73;;;25.27;;
14474;SDS011;7323;50.848;4.334;2023-02-13T09:00:55;35.63;;;25.37;;
14474;SDS011;7323;50.848;4.334;2023-02-13T09:03:21;37.30;;;24.40;;
14474;SDS011;7323;50.848;4.334;2023-02-13T09:05:48;34.03;;;22.67;;
14474;SDS011;7323;50.848;4.334;2023-02-13T09:08:14;35.63;;;24.07;;
14474;SDS011;7323;50.848;4.334;2023-02-13T09:10:42;37.77;;;23.63;;
14474;SDS011;7323;50.848;4.334;2023-02-13T09:13:08;38.83;;;24.07;;
14474;SDS011;7323;50.848;4.334;2023-02-13T09:15:39;32.33;;;24.43;;
14474;SDS011;7323;50.848;4.334;2023-02-13T09:18:06;36.63;;;24.20;;
14474;SDS011;7323;50.848;4.334;2023-02-13T09:20:32;34.47;;;23.13;;
14474;SDS011;7323;50.848;4.334;2023-02-13T09:22:57;34.57;;;22.00;;
14474;SDS011;7323;50.848;4.334;2023-02-13T09:25:24;31.83;;;23.30;;
14474;SDS011;7323;50.848;4.334;2023-02-13T09:27:51;35.83;;;21.93;;
14474;SDS011;7323;50.848;4.334;2023-02-13T09:30:18;31.77;;;23.20;;
14474;SDS011;7323;50.848;4.334;2023-02-13T09:32:48;30.07;;;21.90;;
14474;SDS011;7323;50.848;4.334;2023-02-13T09:35:18;32.60;;;21.70;;
14474;SDS011;7323;50.848;4.334;2023-02-13T09:37:45;36.00;;;21.63;;
14474;SDS011;7323;50.848;4.334;2023-02-13T09:40:17;30.63;;;20.83;;
14474;SDS011;7323;50.848;4.334;2023-02-13T09:42:51;27.83;;;19.80;;
14474;SDS011;7323;50.848;4.334;2023-02-13T09:45:19;31.53;;;20.77;;
14474;SDS011;7323;50.848;4.334;2023-02-13T09:47:47;28.77;;;19.73;;
14474;SDS011;7323;50.848;4.334;2023-02-13T09:50:22;30.97;;;19.67;;
14474;SDS011;7323;50.848;4.334;2023-02-13T09:52:51;30.40;;;19.83;;
14474;SDS011;7323;50.848;4.334;2023-02-13T09:55:20;26.40;;;19.67;;
14474;SDS011;7323;50.848;4.334;2023-02-13T09:57:52;30.37;;;19.97;;
14474;SDS011;7323;50.848;4.334;2023-02-13T10:05:29;25.60;;;19.67;;
14474;SDS011;7323;50.848;4.334;2023-02-13T10:16:38;26.80;;;19.50;;
14474;SDS011;7323;50.848;4.334;2023-02-13T10:19:18;31.60;;;22.17;;
14474;SDS011;7323;50.848;4.334;2023-02-13T10:22:16;31.03;;;20.70;;
14474;SDS011;7323;50.848;4.334;2023-02-13T10:24:55;26.37;;;19.20;;
14474;SDS011;7323;50.848;4.334;2023-02-13T10:27:31;24.77;;;18.07;;
14474;SDS011;7323;50.848;4.334;2023-02-13T10:38:30;25.13;;;16.73;;
14474;SDS011;7323;50.848;4.334;2023-02-13T10:41:04;22.43;;;16.90;;
14474;SDS011;7323;50.848;4.334;2023-02-13T11:00:33;17.73;;;13.23;;
14474;SDS011;7323;50.848;4.334;2023-02-13T11:03:20;17.80;;;13.03;;
14474;SDS011;7323;50.848;4.334;2023-02-13T11:05:47;17.17;;;13.43;;
14474;SDS011;7323;50.848;4.334;2023-02-13T11:14:06;17.93;;;12.60;;
14474;SDS011;7323;50.848;4.334;2023-02-13T11:16:47;17.83;;;13.57;;
14474;SDS011;7323;50.848;4.334;2023-02-13T11:19:16;19.80;;;13.87;;
14474;SDS011;7323;50.848;4.334;2023-02-13T11:21:48;18.30;;;12.93;;
14474;SDS011;7323;50.848;4.334;2023-02-13T11:24:23;16.97;;;12.43;;
14474;SDS011;7323;50.848;4.334;2023-02-13T11:26:51;18.53;;;14.57;;
14474;SDS011;7323;50.848;4.334;2023-02-13T11:29:25;17.07;;;13.50;;
14474;SDS011;7323;50.848;4.334;2023-02-13T11:34:45;17.40;;;13.70;;
14474;SDS011;7323;50.848;4.334;2023-02-13T11:37:27;16.30;;;13.63;;
14474;SDS011;7323;50.848;4.334;2023-02-13T11:39:59;16.77;;;13.30;;
14474;SDS011;7323;50.848;4.334;2023-02-13T11:42:55;14.83;;;12.43;;
14474;SDS011;7323;50.848;4.334;2023-02-13T11:45:22;17.70;;;13.33;;
14474;SDS011;7323;50.848;4.334;2023-02-13T11:47:49;16.53;;;13.60;;
14474;SDS011;7323;50.848;4.334;2023-02-13T11:50:28;17.30;;;13.57;;
14474;SDS011;7323;50.848;4.334;2023-02-13T11:55:44;17.83;;;13.90;;
14474;SDS011;7323;50.848;4.334;2023-02-13T11:58:25;16.43;;;13.60;;
14474;SDS011;7323;50.848;4.334;2023-02-13T12:01:06;16.50;;;13.43;;
14474;SDS011;7323;50.848;4.334;2023-02-13T12:03:55;17.37;;;13.83;;
14474;SDS011;7323;50.848;4.334;2023-02-13T12:06:38;17.27;;;13.17;;
14474;SDS011;7323;50.848;4.334;2023-02-13T12:09:13;17.63;;;13.27;;
14474;SDS011;7323;50.848;4.334;2023-02-13T12:14:23;17.97;;;13.30;;
14474;SDS011;7323;50.848;4.334;2023-02-13T12:16:59;20.27;;;14.03;;
14474;SDS011;7323;50.848;4.334;2023-02-13T12:19:33;16.53;;;13.37;;
14474;SDS011;7323;50.848;4.334;2023-02-13T12:22:29;19.40;;;13.13;;
14474;SDS011;7323;50.848;4.334;2023-02-13T12:25:06;17.30;;;13.43;;
14474;SDS011;7323;50.848;4.334;2023-02-13T12:27:55;17.87;;;13.77;;
14474;SDS011;7323;50.848;4.334;2023-02-13T12:36:10;16.50;;;13.70;;
14474;SDS011;7323;50.848;4.334;2023-02-13T12:39:11;17.40;;;13.47;;
14474;SDS011;7323;50.848;4.334;2023-02-13T12:44:47;16.30;;;12.47;;
14474;SDS011;7323;50.848;4.334;2023-02-13T12:47:30;15.83;;;12.13;;
14474;SDS011;7323;50.848;4.334;2023-02-13T12:50:07;13.90;;;11.70;;
14474;SDS011;7323;50.848;4.334;2023-02-13T13:07:18;12.50;;;10.60;;
14474;SDS011;7323;50.848;4.334;2023-02-13T13:16:09;13.07;;;10.10;;
14474;SDS011;7323;50.848;4.334;2023-02-13T13:27:35;14.07;;;10.40;;
14474;SDS011;7323;50.848;4.334;2023-02-13T13:30:21;14.10;;;10.07;;
14474;SDS011;7323;50.848;4.334;2023-02-13T13:32:54;13.50;;;10.40;;
14474;SDS011;7323;50.848;4.334;2023-02-13T13:35:46;14.20;;;11.00;;
14474;SDS011;7323;50.848;4.334;2023-02-13T13:38:33;13.47;;;11.53;;
14474;SDS011;7323;50.848;4.334;2023-02-13T13:41:55;14.37;;;11.47;;
14474;SDS011;7323;50.848;4.334;2023-02-13T13:47:31;13.20;;;11.37;;
14474;SDS011;7323;50.848;4.334;2023-02-13T13:50:20;14.10;;;10.57;;
14474;SDS011;7323;50.848;4.334;2023-02-13T13:53:05;13.50;;;10.60;;
14474;SDS011;7323;50.848;4.334;2023-02-13T14:03:52;12.63;;;10.90;;
14474;SDS011;7323;50.848;4.334;2023-02-13T14:09:35;14.07;;;10.63;;
14474;SDS011;7323;50.848;4.334;2023-02-13T14:11:56;13.73;;;10.90;;
14474;SDS011;7323;50.848;4.334;2023-02-13T14:17:02;14.73;;;10.60;;
14474;SDS011;7323;50.848;4.334;2023-02-13T14:19:38;14.73;;;12.20;;
14474;SDS011;7323;50.848;4.334;2023-02-13T14:25:18;13.10;;;11.07;;
14474;SDS011;7323;50.848;4.334;2023-02-13T14:27:55;13.33;;;11.77;;
14474;SDS011;7323;50.848;4.334;2023-02-13T14:32:59;13.97;;;11.60;;
14474;SDS011;7323;50.848;4.334;2023-02-13T14:35:31;18.17;;;11.57;;
14474;SDS011;7323;50.848;4.334;2023-02-13T14:38:06;15.20;;;12.10;;
14474;SDS011;7323;50.848;4.334;2023-02-13T14:49:14;13.30;;;11.10;;
14474;SDS011;7323;50.848;4.334;2023-02-13T14:51:53;15.07;;;10.43;;
14474;SDS011;7323;50.848;4.334;2023-02-13T14:54:23;11.03;;;9.40;;
14474;SDS011;7323;50.848;4.334;2023-02-13T14:57:06;14.17;;;9.33;;
14474;SDS011;7323;50.848;4.334;2023-02-13T14:59:42;11.10;;;9.27;;
14474;SDS011;7323;50.848;4.334;2023-02-13T15:02:16;11.80;;;9.00;;
14474;SDS011;7323;50.848;4.334;2023-02-13T15:04:55;11.83;;;9.20;;
14474;SDS011;7323;50.848;4.334;2023-02-13T15:07:32;11.53;;;9.27;;
14474;SDS011;7323;50.848;4.334;2023-02-13T15:12:59;11.03;;;9.53;;
14474;SDS011;7323;50.848;4.334;2023-02-13T15:15:31;13.50;;;8.90;;
14474;SDS011;7323;50.848;4.334;2023-02-13T15:18:01;13.77;;;8.97;;
14474;SDS011;7323;50.848;4.334;2023-02-13T15:20:44;13.27;;;9.20;;
14474;SDS011;7323;50.848;4.334;2023-02-13T15:23:21;12.33;;;9.40;;
14474;SDS011;7323;50.848;4.334;2023-02-13T15:26:03;12.70;;;9.30;;
14474;SDS011;7323;50.848;4.334;2023-02-13T15:28:34;12.87;;;9.60;;
14474;SDS011;7323;50.848;4.334;2023-02-13T15:31:01;12.37;;;9.83;;
14474;SDS011;7323;50.848;4.334;2023-02-13T15:33:42;11.90;;;9.53;;
14474;SDS011;7323;50.848;4.334;2023-02-13T15:36:16;9.40;;;7.73;;
14474;SDS011;7323;50.848;4.334;2023-02-13T15:39:00;11.83;;;9.03;;
14474;SDS011;7323;50.848;4.334;2023-02-13T15:41:36;10.23;;;8.43;;
14474;SDS011;7323;50.848;4.334;2023-02-13T15:44:21;10.53;;;7.80;;
14474;SDS011;7323;50.848;4.334;2023-02-13T15:46:50;9.87;;;7.63;;
14474;SDS011;7323;50.848;4.334;2023-02-13T15:52:20;9.57;;;8.03;;
14474;SDS011;7323;50.848;4.334;2023-02-13T15:54:57;18.43;;;9.80;;
14474;SDS011;7323;50.848;4.334;2023-02-13T15:57:49;10.57;;;8.17;;
14474;SDS011;7323;50.848;4.334;2023-02-13T16:02:54;11.70;;;8.73;;
14474;SDS011;7323;50.848;4.334;2023-02-13T16:05:21;10.73;;;8.27;;
14474;SDS011;7323;50.848;4.334;2023-02-13T16:07:56;13.00;;;8.17;;
14474;SDS011;7323;50.848;4.334;2023-02-13T16:10:35;9.03;;;7.50;;
14474;SDS011;7323;50.848;4.334;2023-02-13T16:13:07;9.47;;;7.60;;
14474;SDS011;7323;50.848;4.334;2023-02-13T16:15:45;11.70;;;8.27;;
14474;SDS011;7323;50.848;4.334;2023-02-13T16:20:42;10.83;;;7.97;;
14474;SDS011;7323;50.848;4.334;2023-02-13T16:23:20;9.30;;;8.03;;
14474;SDS011;7323;50.848;4.334;2023-02-13T16:25:48;10.13;;;8.00;;
14474;SDS011;7323;50.848;4.334;2023-02-13T16:30:57;9.13;;;8.17;;
14474;SDS011;7323;50.848;4.334;2023-02-13T16:33:28;9.50;;;8.40;;
14474;SDS011;7323;50.848;4.334;2023-02-13T16:38:41;10.93;;;8.13;;
14474;SDS011;7323;50.848;4.334;2023-02-13T16:43:47;13.43;;;8.70;;
14474;SDS011;7323;50.848;4.334;2023-02-13T16:46:19;15.67;;;8.80;;
14474;SDS011;7323;50.848;4.334;2023-02-13T16:51:22;17.63;;;9.43;;
14474;SDS011;7323;50.848;4.334;2023-02-13T16:56:39;15.53;;;9.00;;
14474;SDS011;7323;50.848;4.334;2023-02-13T17:07:49;11.73;;;8.80;;
14474;SDS011;7323;50.848;4.334;2023-02-13T17:10:25;12.50;;;8.83;;
14474;SDS011;7323;50.848;4.334;2023-02-13T17:12:59;11.40;;;8.90;;
14474;SDS011;7323;50.848;4.334;2023-02-13T17:15:36;13.17;;;10.00;;
14474;SDS011;7323;50.848;4.334;2023-02-13T17:18:07;13.97;;;10.00;;
14474;SDS011;7323;50.848;4.334;2023-02-13T17:20:35;14.07;;;8.97;;
14474;SDS011;7323;50.848;4.334;2023-02-13T17:23:07;11.33;;;8.63;;
14474;SDS011;7323;50.848;4.334;2023-02-13T17:25:50;15.20;;;10.17;;
14474;SDS011;7323;50.848;4.334;2023-02-13T17:28:18;14.50;;;9.53;;
14474;SDS011;7323;50.848;4.334;2023-02-13T17:30:48;14.43;;;10.37;;
14474;SDS011;7323;50.848;4.334;2023-02-13T17:33:29;14.43;;;10.00;;
14474;SDS011;7323;50.848;4.334;2023-02-13T17:36:02;13.57;;;10.67;;
14474;SDS011;7323;50.848;4.334;2023-02-13T17:38:48;12.37;;;10.33;;
14474;SDS011;7323;50.848;4.334;2023-02-13T17:41:22;14.63;;;10.63;;
14474;SDS011;7323;50.848;4.334;2023-02-13T17:43:51;18.20;;;11.20;;
14474;SDS011;7323;50.848;4.334;2023-02-13T17:46:18;15.07;;;11.13;;
14474;SDS011;7323;50.848;4.334;2023-02-13T17:48:45;15.40;;;11.40;;
14474;SDS011;7323;50.848;4.334;2023-02-13T17:51:13;16.13;;;11.50;;
14474;SDS011;7323;50.848;4.334;2023-02-13T17:53:59;15.83;;;11.63;;
14474;SDS011;7323;50.848;4.334;2023-02-13T17:56:28;16.00;;;11.70;;
14474;SDS011;7323;50.848;4.334;2023-02-13T17:58:59;16.33;;;12.07;;
14474;SDS011;7323;50.848;4.334;2023-02-13T18:01:25;18.60;;;12.00;;
14474;SDS011;7323;50.848;4.334;2023-02-13T18:03:52;16.53;;;12.10;;
14474;SDS011;7323;50.848;4.334;2023-02-13T18:06:25;15.50;;;11.83;;
14474;SDS011;7323;50.848;4.334;2023-02-13T18:08:50;18.40;;;11.77;;
14474;SDS011;7323;50.848;4.334;2023-02-13T18:11:18;17.50;;;12.73;;
14474;SDS011;7323;50.848;4.334;2023-02-13T18:13:56;19.10;;;12.47;;
14474;SDS011;7323;50.848;4.334;2023-02-13T18:16:24;16.90;;;12.20;;
14474;SDS011;7323;50.848;4.334;2023-02-13T18:18:59;14.83;;;11.30;;
14474;SDS011;7323;50.848;4.334;2023-02-13T18:21:25;15.77;;;11.97;;
14474;SDS011;7323;50.848;4.334;2023-02-13T18:23:52;15.53;;;11.60;;
14474;SDS011;7323;50.848;4.334;2023-02-13T18:26:28;14.50;;;11.23;;